createdAt,value
2022-08-12T00:02:04.133Z,17.00
2022-08-12T00:05:04.333Z,17.00
2022-08-12T00:08:28.620Z,16.90
2022-08-12T00:11:52.142Z,16.90
2022-08-12T00:15:07.493Z,16.80
2022-08-12T00:18:22.625Z,16.80
2022-08-12T00:21:37.623Z,16.78
2022-08-12T00:24:52.655Z,16.70
2022-08-12T00:28:07.711Z,16.70
2022-08-12T00:31:22.828Z,16.70
2022-08-12T00:34:37.860Z,16.60
2022-08-12T00:37:53.235Z,16.60
2022-08-12T00:41:08.534Z,16.58
2022-08-12T00:44:06.024Z,16.50
2022-08-12T00:47:03.503Z,16.50
2022-08-12T00:50:00.976Z,16.46
2022-08-12T00:52:58.457Z,16.40
2022-08-12T00:55:55.937Z,16.40
2022-08-12T00:58:53.733Z,16.40
2022-08-12T01:02:02.350Z,16.38
2022-08-12T01:05:26.392Z,16.30
2022-08-12T01:08:43.675Z,16.30
2022-08-12T01:11:41.155Z,16.30
2022-08-12T01:14:42.305Z,16.20
2022-08-12T01:17:39.936Z,16.20
2022-08-12T01:20:37.395Z,16.20
2022-08-12T01:23:34.895Z,16.10
2022-08-12T01:26:32.399Z,16.10
2022-08-12T01:29:33.077Z,16.02
2022-08-12T01:32:31.124Z,16.00
2022-08-12T01:35:28.625Z,15.90
2022-08-12T01:38:29.854Z,15.90
2022-08-12T01:41:27.848Z,15.88
2022-08-12T01:44:27.315Z,15.80
2022-08-12T01:47:24.817Z,15.80
2022-08-12T01:50:22.288Z,15.70
2022-08-12T01:53:20.921Z,15.70
2022-08-12T01:56:18.771Z,15.60
2022-08-12T01:59:33.803Z,15.60
2022-08-12T02:02:32.130Z,15.60
2022-08-12T02:05:46.959Z,15.50
2022-08-12T02:09:01.917Z,15.50
2022-08-12T02:11:59.399Z,15.50
2022-08-12T02:15:02.167Z,15.40
2022-08-12T02:18:00.396Z,15.40
2022-08-12T02:20:58.148Z,15.40
2022-08-12T02:23:56.323Z,15.40
2022-08-12T02:26:53.801Z,15.30
2022-08-12T02:29:51.307Z,15.30
2022-08-12T02:32:48.758Z,15.26
2022-08-12T02:35:46.242Z,15.20
2022-08-12T02:38:43.749Z,15.20
2022-08-12T02:41:41.223Z,15.20
2022-08-12T02:44:38.710Z,15.20
2022-08-12T02:48:00.225Z,15.12
2022-08-12T02:50:53.654Z,15.10
2022-08-12T02:54:03.342Z,15.02
2022-08-12T02:57:03.691Z,15.00
2022-08-12T03:00:04.230Z,15.00
2022-08-12T03:03:01.702Z,15.00
2022-08-12T03:05:59.193Z,15.00
2022-08-12T03:08:57.547Z,14.96
2022-08-12T03:11:55.027Z,14.90
2022-08-12T03:14:52.502Z,14.90
2022-08-12T03:18:23.545Z,14.90
2022-08-12T03:21:07.415Z,14.90
2022-08-12T03:24:04.900Z,14.90
2022-08-12T03:27:02.762Z,14.90
2022-08-12T03:30:00.270Z,14.90
2022-08-12T03:32:57.746Z,14.90
2022-08-12T03:35:55.217Z,14.90
2022-08-12T03:39:13.829Z,14.90
2022-08-12T03:42:11.443Z,14.90
2022-08-12T03:45:26.748Z,14.90
2022-08-12T03:48:41.986Z,14.90
2022-08-12T03:51:57.109Z,14.90
2022-08-12T03:55:12.115Z,14.90
2022-08-12T03:58:27.141Z,15.00
2022-08-12T04:01:25.740Z,15.00
2022-08-12T04:04:23.586Z,15.00
2022-08-12T04:07:21.370Z,15.00
2022-08-12T04:10:18.976Z,15.00
2022-08-12T04:13:16.975Z,15.00
2022-08-12T04:16:15.374Z,15.00
2022-08-12T04:19:14.066Z,15.00
2022-08-12T04:22:12.680Z,15.10
2022-08-12T04:25:10.595Z,15.10
2022-08-12T04:28:13.051Z,15.20
2022-08-12T04:31:13.223Z,15.20
2022-08-12T04:34:10.681Z,15.30
2022-08-12T04:37:08.153Z,15.40
2022-08-12T04:40:05.618Z,15.46
2022-08-12T04:43:03.105Z,15.56
2022-08-12T04:46:01.330Z,15.60
2022-08-12T04:48:59.090Z,15.70
2022-08-12T04:51:59.121Z,15.80
2022-08-12T04:54:57.143Z,15.90
2022-08-12T04:57:54.731Z,16.00
2022-08-12T05:00:52.214Z,16.00
2022-08-12T05:03:49.692Z,16.10
2022-08-12T05:06:47.826Z,16.20
2022-08-12T05:09:58.793Z,16.30
2022-08-12T05:12:58.777Z,16.40
2022-08-12T05:16:05.266Z,16.50
2022-08-12T05:19:03.359Z,16.56
2022-08-12T05:22:00.936Z,16.64
2022-08-12T05:24:58.413Z,16.70
2022-08-12T05:27:58.945Z,16.80
2022-08-12T05:30:56.763Z,16.90
2022-08-12T05:33:54.350Z,17.00
2022-08-12T05:36:51.878Z,17.10
2022-08-12T05:39:49.381Z,17.20
2022-08-12T05:42:47.150Z,17.30
2022-08-12T05:45:45.413Z,17.40
2022-08-12T05:48:46.579Z,17.58
2022-08-12T05:51:44.042Z,17.70
2022-08-12T05:54:57.080Z,17.80
2022-08-12T05:57:55.463Z,18.00
2022-08-12T06:00:52.961Z,18.14
2022-08-12T06:03:50.479Z,18.20
2022-08-12T06:06:52.736Z,18.30
2022-08-12T06:09:50.213Z,18.40
2022-08-12T06:12:50.293Z,18.50
2022-08-12T06:15:49.406Z,18.60
2022-08-12T06:18:47.448Z,18.60
2022-08-12T06:21:48.942Z,18.62
2022-08-12T06:24:48.657Z,18.70
2022-08-12T06:28:07.708Z,18.80
2022-08-12T06:31:26.312Z,19.00
2022-08-12T06:35:25.936Z,19.20
2022-08-12T06:37:41.883Z,19.40
2022-08-12T06:40:59.211Z,19.50
2022-08-12T06:44:06.279Z,19.60
2022-08-12T06:47:05.332Z,19.74
2022-08-12T06:50:03.657Z,19.82
2022-08-12T06:53:02.342Z,19.90
2022-08-12T06:56:00.637Z,20.00
2022-08-12T06:58:58.129Z,20.00
2022-08-12T07:01:56.072Z,20.20
2022-08-12T07:04:53.792Z,20.40
2022-08-12T07:07:51.622Z,20.60
2022-08-12T07:10:59.476Z,20.82
2022-08-12T07:14:11.579Z,21.16
2022-08-12T07:17:13.050Z,21.50
2022-08-12T07:20:29.694Z,21.80
2022-08-12T07:23:30.995Z,22.12
2022-08-12T07:26:29.485Z,22.40
2022-08-12T07:29:57.830Z,22.60
2022-08-12T07:32:48.555Z,22.80
2022-08-12T07:35:48.456Z,23.08
2022-08-12T07:38:47.971Z,23.40
2022-08-12T07:41:45.475Z,23.70
2022-08-12T07:44:44.120Z,24.00
2022-08-12T07:47:43.530Z,24.28
2022-08-12T07:50:41.272Z,24.56
2022-08-12T07:53:50.166Z,24.80
2022-08-12T07:56:56.330Z,25.18
2022-08-12T07:59:55.693Z,25.40
2022-08-12T08:02:54.696Z,25.70
2022-08-12T08:05:52.222Z,25.90
2022-08-12T08:08:49.712Z,26.00
2022-08-12T08:12:05.045Z,26.28
2022-08-12T08:15:02.520Z,26.54
2022-08-12T08:18:01.858Z,26.70
2022-08-12T08:20:59.336Z,27.12
2022-08-12T08:24:14.785Z,27.40
2022-08-12T08:27:12.374Z,27.80
2022-08-12T08:30:11.643Z,28.10
2022-08-12T08:33:24.573Z,28.50
2022-08-12T08:36:29.825Z,28.70
2022-08-12T08:39:28.747Z,28.70
2022-08-12T08:42:40.543Z,28.90
2022-08-12T08:45:39.477Z,28.74
2022-08-12T08:48:36.978Z,28.60
2022-08-12T08:51:34.466Z,28.78
2022-08-12T08:54:33.635Z,29.12
2022-08-12T08:57:43.532Z,29.60
2022-08-12T09:00:42.954Z,30.00
2022-08-12T09:05:09.993Z,30.16
2022-08-12T09:07:16.880Z,30.30
2022-08-12T09:10:30.972Z,30.36
2022-08-12T09:14:10.603Z,30.50
2022-08-12T09:16:50.935Z,30.90
2022-08-12T09:19:52.268Z,31.10
2022-08-12T09:22:55.056Z,31.24
2022-08-12T09:25:52.628Z,31.00
2022-08-12T09:28:52.957Z,31.36
2022-08-12T09:32:06.991Z,31.40
2022-08-12T09:35:05.722Z,31.80
2022-08-12T09:38:27.868Z,32.20
2022-08-12T09:42:35.095Z,32.20
2022-08-12T09:45:17.610Z,32.16
2022-08-12T09:48:19.811Z,32.30
2022-08-12T09:51:22.441Z,32.30
2022-08-12T09:54:34.362Z,32.14
2022-08-12T09:58:46.589Z,32.48
2022-08-12T10:00:52.678Z,32.80
2022-08-12T10:04:03.066Z,33.08
2022-08-12T10:07:03.171Z,33.30
2022-08-12T10:10:01.101Z,33.50
2022-08-12T10:13:17.103Z,33.60
2022-08-12T10:16:39.178Z,34.00
2022-08-12T10:19:37.960Z,33.90
2022-08-12T10:22:40.916Z,33.60
2022-08-12T10:26:38.186Z,33.76
2022-08-12T10:30:03.907Z,34.10
2022-08-12T10:32:56.416Z,34.10
2022-08-12T10:35:55.648Z,34.00
2022-08-12T10:38:56.473Z,34.10
2022-08-12T10:42:11.715Z,34.20
2022-08-12T10:45:09.844Z,34.00
2022-08-12T10:48:21.650Z,34.20
2022-08-12T10:52:03.367Z,34.40
2022-08-12T10:54:51.158Z,34.70
2022-08-12T10:58:14.232Z,34.90
2022-08-12T11:01:49.166Z,34.82
2022-08-12T11:04:39.456Z,35.00
2022-08-12T11:08:36.034Z,35.12
2022-08-12T11:10:59.495Z,35.30
2022-08-12T11:14:03.733Z,35.30
2022-08-12T11:17:52.423Z,35.00
2022-08-12T11:20:20.056Z,35.10
2022-08-12T11:23:25.405Z,35.30
2022-08-12T11:26:34.254Z,35.40
2022-08-12T11:30:01.778Z,35.52
2022-08-12T11:32:50.607Z,35.90
2022-08-12T11:35:48.088Z,35.80
2022-08-12T11:38:50.321Z,35.80
2022-08-12T11:41:48.571Z,36.00
2022-08-12T11:44:46.167Z,36.20
2022-08-12T11:47:43.665Z,35.84
2022-08-12T11:50:42.220Z,35.50
2022-08-12T11:53:57.095Z,35.64
2022-08-12T11:56:59.602Z,35.90
2022-08-12T12:03:17.337Z,35.76
2022-08-12T12:06:16.373Z,35.60
2022-08-12T12:09:16.583Z,35.30
2022-08-12T12:12:14.895Z,35.50
2022-08-12T12:15:13.326Z,35.60
2022-08-12T12:18:10.991Z,35.70
2022-08-12T12:21:10.423Z,35.76
2022-08-12T12:24:08.162Z,35.70
2022-08-12T12:27:05.633Z,35.72
2022-08-12T12:30:17.722Z,35.84
2022-08-12T12:33:20.918Z,35.60
2022-08-12T12:36:24.129Z,35.70
2022-08-12T12:39:26.835Z,35.50
2022-08-12T12:42:55.250Z,35.50
2022-08-12T12:45:44.640Z,35.48
2022-08-12T12:48:44.732Z,35.60
2022-08-12T12:51:49.371Z,35.38
2022-08-12T12:54:56.214Z,35.44
2022-08-12T12:57:59.985Z,35.70
2022-08-12T13:01:04.956Z,36.00
2022-08-12T13:04:19.020Z,35.90
2022-08-12T13:07:22.213Z,35.80
2022-08-12T13:10:39.670Z,35.88
2022-08-12T13:14:07.790Z,35.80
2022-08-12T13:17:09.729Z,35.70
2022-08-12T13:20:07.792Z,35.90
2022-08-12T13:23:35.897Z,35.70
2022-08-12T13:26:25.037Z,35.62
2022-08-12T13:29:22.577Z,35.60
2022-08-12T13:32:31.474Z,35.76
2022-08-12T13:36:02.956Z,35.60
2022-08-12T13:38:54.153Z,35.90
2022-08-12T13:41:52.202Z,36.00
2022-08-12T13:44:53.699Z,35.98
2022-08-12T13:47:55.538Z,36.00
2022-08-12T13:50:53.033Z,35.90
2022-08-12T13:53:58.910Z,36.00
2022-08-12T13:56:58.199Z,36.10
2022-08-12T14:00:00.700Z,36.10
2022-08-12T14:02:59.486Z,36.00
2022-08-12T14:05:59.580Z,35.44
2022-08-12T14:08:57.180Z,35.08
2022-08-12T14:11:59.591Z,34.70
2022-08-12T14:14:58.388Z,34.40
2022-08-12T14:17:58.758Z,34.50
2022-08-12T14:20:58.635Z,34.68
2022-08-12T14:24:04.342Z,34.80
2022-08-12T14:27:03.433Z,34.90
2022-08-12T14:30:15.506Z,34.80
2022-08-12T14:33:15.475Z,34.54
2022-08-12T14:36:14.933Z,34.34
2022-08-12T14:39:12.473Z,34.08
2022-08-12T14:42:10.064Z,34.10
2022-08-12T14:45:08.007Z,34.10
2022-08-12T14:48:10.231Z,34.10
2022-08-12T14:52:42.599Z,33.74
2022-08-12T14:57:57.096Z,33.40
2022-08-12T15:01:12.771Z,33.40
2022-08-12T15:04:10.263Z,33.60
2022-08-12T15:07:07.795Z,33.70
2022-08-12T15:10:32.104Z,33.70
2022-08-12T15:13:31.525Z,33.60
2022-08-12T15:16:29.557Z,33.30
2022-08-12T15:20:30.804Z,33.10
2022-08-12T15:22:54.116Z,32.84
2022-08-12T15:26:03.092Z,32.60
2022-08-12T15:29:00.933Z,32.50
2022-08-12T15:32:00.154Z,32.40
2022-08-12T15:35:00.654Z,32.24
2022-08-12T15:38:09.100Z,32.12
2022-08-12T15:41:08.230Z,32.00
2022-08-12T15:44:36.729Z,31.96
2022-08-12T15:47:26.851Z,31.80
2022-08-12T15:50:31.024Z,31.60
2022-08-12T15:53:51.235Z,31.50
2022-08-12T15:56:50.893Z,31.30
2022-08-12T16:00:00.609Z,31.30
2022-08-12T16:03:08.300Z,31.10
2022-08-12T16:06:12.268Z,31.00
2022-08-12T16:09:45.223Z,30.76
2022-08-12T16:12:43.595Z,30.50
2022-08-12T16:16:02.407Z,30.30
2022-08-12T16:19:09.068Z,30.20
2022-08-12T16:22:16.766Z,30.00
2022-08-12T16:25:18.120Z,29.82
2022-08-12T16:28:21.026Z,29.60
2022-08-12T16:31:25.696Z,29.42
2022-08-12T16:34:42.279Z,29.30
2022-08-12T16:38:25.371Z,29.18
2022-08-12T16:41:02.177Z,28.90
2022-08-12T16:44:02.123Z,28.80
2022-08-12T16:47:05.129Z,28.60
2022-08-12T16:50:03.231Z,28.50
2022-08-12T16:53:03.295Z,28.30
2022-08-12T16:56:04.005Z,28.10
2022-08-12T16:59:02.087Z,27.90
2022-08-12T17:02:00.613Z,27.80
2022-08-12T17:04:59.971Z,27.60
2022-08-12T17:08:00.986Z,27.50
2022-08-12T17:10:58.486Z,27.40
2022-08-12T17:13:56.527Z,27.30
2022-08-12T17:16:55.168Z,27.16
2022-08-12T17:20:29.618Z,27.04
2022-08-12T17:23:18.065Z,26.90
2022-08-12T17:26:17.061Z,26.70
2022-08-12T17:29:32.194Z,26.60
2022-08-12T17:32:40.623Z,26.48
2022-08-12T17:35:43.407Z,26.30
2022-08-12T17:38:50.789Z,26.10
2022-08-12T17:41:56.460Z,26.00
2022-08-12T17:45:01.545Z,25.80
2022-08-12T17:48:05.231Z,25.70
2022-08-12T17:51:04.869Z,25.58
2022-08-12T17:54:12.318Z,25.40
2022-08-12T17:57:16.220Z,25.30
2022-08-12T18:00:16.721Z,25.10
2022-08-12T18:04:04.447Z,24.98
2022-08-12T18:06:34.973Z,24.80
2022-08-12T18:09:36.441Z,24.68
2022-08-12T18:12:42.839Z,24.50
2022-08-12T18:16:03.831Z,24.40
2022-08-12T18:19:04.195Z,24.30
2022-08-12T18:22:03.129Z,24.18
2022-08-12T18:25:03.859Z,24.00
2022-08-12T18:28:16.601Z,23.90
2022-08-12T18:31:16.861Z,23.70
2022-08-12T18:34:14.658Z,23.60
2022-08-12T18:37:29.438Z,23.50
2022-08-12T18:40:47.519Z,23.40
2022-08-12T18:43:59.107Z,23.22
2022-08-12T18:46:58.046Z,23.10
2022-08-12T18:49:55.553Z,23.00
2022-08-12T18:52:53.047Z,22.90
2022-08-12T18:55:57.408Z,22.90
2022-08-12T18:58:59.990Z,22.80
2022-08-12T19:02:18.940Z,22.70
2022-08-12T19:05:17.433Z,22.60
2022-08-12T19:08:14.924Z,22.50
2022-08-12T19:11:30.301Z,22.50
2022-08-12T19:14:28.292Z,22.40
2022-08-12T19:17:47.625Z,22.40
2022-08-12T19:20:48.006Z,22.30
2022-08-12T19:24:08.329Z,22.30
2022-08-12T19:27:06.202Z,22.20
2022-08-12T19:30:06.786Z,22.12
2022-08-12T19:33:07.007Z,22.10
2022-08-12T19:36:08.278Z,22.00
2022-08-12T19:39:23.160Z,22.00
2022-08-12T19:42:28.600Z,21.92
2022-08-12T19:45:41.925Z,21.90
2022-08-12T19:48:41.593Z,21.90
2022-08-12T19:51:41.160Z,21.90
2022-08-12T19:54:38.836Z,21.80
2022-08-12T19:57:42.613Z,21.80
2022-08-12T20:00:59.829Z,21.80
2022-08-12T20:03:59.969Z,21.80
2022-08-12T20:07:00.372Z,21.70
2022-08-12T20:09:58.532Z,21.70
2022-08-12T20:13:19.122Z,21.70
2022-08-12T20:16:47.128Z,21.70
2022-08-12T20:20:00.988Z,21.70
2022-08-12T20:22:48.622Z,21.60
2022-08-12T20:25:53.557Z,21.60
2022-08-12T20:28:57.349Z,21.60
2022-08-12T20:31:54.997Z,21.54
2022-08-12T20:34:53.198Z,21.60
2022-08-12T20:38:07.637Z,21.56
2022-08-12T20:41:16.286Z,21.50
2022-08-12T20:44:18.541Z,21.50
2022-08-12T20:47:19.598Z,21.50
2022-08-12T20:50:18.493Z,21.50
2022-08-12T20:53:18.893Z,21.50
2022-08-12T20:56:34.907Z,21.40
2022-08-12T20:59:32.899Z,21.40
2022-08-12T21:02:32.832Z,21.40
2022-08-12T21:06:12.032Z,21.40
2022-08-12T21:09:05.701Z,21.34
2022-08-12T21:12:28.783Z,21.30
2022-08-12T21:15:53.396Z,21.30
2022-08-12T21:18:50.693Z,21.30
2022-08-12T21:21:50.549Z,21.30
2022-08-12T21:24:48.241Z,21.30
2022-08-12T21:27:59.337Z,21.30
2022-08-12T21:32:34.817Z,21.20
2022-08-12T21:34:18.869Z,21.20
2022-08-12T21:37:26.704Z,21.10
2022-08-12T21:40:37.085Z,21.10
2022-08-12T21:43:44.615Z,21.06
2022-08-12T21:46:53.648Z,21.00
2022-08-12T21:50:04.070Z,21.00
2022-08-12T21:53:10.250Z,21.00
2022-08-12T21:56:09.054Z,20.90
2022-08-12T21:59:13.567Z,20.90
2022-08-12T22:02:30.955Z,20.80
2022-08-12T22:05:49.079Z,20.80
2022-08-12T22:08:47.389Z,20.80
2022-08-12T22:11:49.360Z,20.80
2022-08-12T22:14:54.623Z,20.70
2022-08-12T22:17:55.187Z,20.70
2022-08-12T22:20:53.191Z,20.70
2022-08-12T22:24:04.450Z,20.70
2022-08-12T22:27:07.938Z,20.70
2022-08-12T22:30:38.420Z,20.62
2022-08-12T22:33:54.554Z,20.60
2022-08-12T22:36:55.815Z,20.60
2022-08-12T22:39:54.919Z,20.60
2022-08-12T22:43:15.444Z,20.60
2022-08-12T22:46:31.319Z,20.50
2022-08-12T22:49:49.090Z,20.50
2022-08-12T22:52:48.751Z,20.50
2022-08-12T22:55:59.191Z,20.40
2022-08-12T22:59:04.237Z,20.40
2022-08-12T23:02:02.466Z,20.34
2022-08-12T23:05:00.973Z,20.30
2022-08-12T23:08:00.767Z,20.30
2022-08-12T23:10:59.192Z,20.28
2022-08-12T23:14:03.531Z,20.20
2022-08-12T23:17:02.365Z,20.20
2022-08-12T23:20:04.951Z,20.20
2022-08-12T23:23:05.885Z,20.20
2022-08-12T23:26:06.522Z,20.20
2022-08-12T23:29:29.837Z,20.20
2022-08-12T23:32:45.685Z,20.20
2022-08-12T23:35:59.493Z,20.20
2022-08-12T23:39:01.796Z,20.18
2022-08-12T23:42:17.952Z,20.16
2022-08-12T23:45:18.955Z,20.20
2022-08-12T23:48:23.214Z,20.18
2022-08-12T23:51:32.084Z,20.10
2022-08-12T23:54:33.147Z,20.10
2022-08-12T23:58:17.681Z,20.10
